createdAt,value
2017-09-04T00:00:06.195Z,66.51
2017-09-04T00:01:16.541Z,66.22
2017-09-04T00:02:26.610Z,66.51
2017-09-04T00:03:36.305Z,67.08
2017-09-04T00:04:46.648Z,67.08
2017-09-04T00:05:56.667Z,66.89
2017-09-04T00:07:07.069Z,66.51
2017-09-04T00:08:17.108Z,66.74
2017-09-04T00:09:27.459Z,66.89
2017-09-04T00:10:37.801Z,66.64
2017-09-04T00:11:47.829Z,66.54
2017-09-04T00:12:57.850Z,66.93
2017-09-04T00:14:07.912Z,66.64
2017-09-04T00:15:18.276Z,66.54
2017-09-04T00:16:28.304Z,66.64
2017-09-04T00:17:38.650Z,66.64
2017-09-04T00:18:48.994Z,66.64
2017-09-04T00:19:59.334Z,66.74
2017-09-04T00:21:09.677Z,66.83
2017-09-04T00:22:19.388Z,66.83
2017-09-04T00:23:29.729Z,66.93
2017-09-04T00:24:39.757Z,66.54
2017-09-04T00:25:50.093Z,66.45
2017-09-04T00:26:59.806Z,67.11
2017-09-04T00:28:10.146Z,66.35
2017-09-04T00:29:20.478Z,67.11
2017-09-04T00:30:30.521Z,66.45
2017-09-04T00:31:40.899Z,66.35
2017-09-04T00:32:51.247Z,66.83
2017-09-04T00:34:01.583Z,66.64
2017-09-04T00:35:11.941Z,66.64
2017-09-04T00:36:21.984Z,67.02
2017-09-04T00:37:32.325Z,67.11
2017-09-04T00:38:42.669Z,67.02
2017-09-04T00:39:53.013Z,66.99
2017-09-04T00:41:03.351Z,66.89
2017-09-04T00:42:13.698Z,66.64
2017-09-04T00:43:24.096Z,66.64
2017-09-04T00:44:34.428Z,66.35
2017-09-04T00:45:44.768Z,66.45
2017-09-04T00:46:54.790Z,66.54
2017-09-04T00:48:05.128Z,66.54
2017-09-04T00:49:15.206Z,66.74
2017-09-04T00:50:25.532Z,66.83
2017-09-04T00:51:35.543Z,66.25
2017-09-04T00:52:45.249Z,66.54
2017-09-04T00:53:55.595Z,66.54
2017-09-04T00:55:05.712Z,66.74
2017-09-04T00:56:16.169Z,66.45
2017-09-04T00:57:26.188Z,66.45
2017-09-04T00:58:36.518Z,66.45
2017-09-04T00:59:46.868Z,66.64
2017-09-04T01:00:56.932Z,66.74
2017-09-04T01:02:06.964Z,66.54
2017-09-04T01:03:17.290Z,66.54
2017-09-04T01:04:27.645Z,66.64
2017-09-04T01:05:37.664Z,66.83
2017-09-04T01:06:48.061Z,66.83
2017-09-04T01:07:58.410Z,66.64
2017-09-04T01:09:08.773Z,66.64
2017-09-04T01:10:19.115Z,66.64
2017-09-04T01:11:29.158Z,66.64
2017-09-04T01:12:39.558Z,66.89
2017-09-04T01:13:49.893Z,66.74
2017-09-04T01:15:00.272Z,66.64
2017-09-04T01:16:10.294Z,66.41
2017-09-04T01:17:20.642Z,66.64
2017-09-04T01:18:31.032Z,66.45
2017-09-04T01:19:41.059Z,66.45
2017-09-04T01:20:51.373Z,66.61
2017-09-04T01:22:03.008Z,66.74
2017-09-04T01:23:12.702Z,66.7
2017-09-04T01:24:22.737Z,66.61
2017-09-04T01:25:33.077Z,66.99
2017-09-04T01:26:43.094Z,66.89
2017-09-04T01:27:53.445Z,66.99
2017-09-04T01:29:03.474Z,67.08
2017-09-04T01:30:13.845Z,66.89
2017-09-04T01:31:23.881Z,66.7
2017-09-04T01:32:34.248Z,66.61
2017-09-04T01:33:43.957Z,66.89
2017-09-04T01:34:53.987Z,67.08
2017-09-04T01:36:04.383Z,67.08
2017-09-04T01:37:14.725Z,66.99
2017-09-04T01:38:25.050Z,66.99
2017-09-04T01:39:35.401Z,66.51
2017-09-04T01:40:45.953Z,66.99
2017-09-04T01:41:56.296Z,66.8
2017-09-04T01:43:06.636Z,66.41
2017-09-04T01:44:16.978Z,66.7
2017-09-04T01:45:27.314Z,66.32
2017-09-04T01:46:37.020Z,66.32
2017-09-04T01:47:47.101Z,66.32
2017-09-04T01:48:56.804Z,66.32
2017-09-04T01:50:07.151Z,66.51
2017-09-04T01:51:17.181Z,66.51
2017-09-04T01:52:27.214Z,66.41
2017-09-04T01:53:37.610Z,66.51
2017-09-04T01:54:47.933Z,66.41
2017-09-04T01:55:57.953Z,66.7
2017-09-04T01:57:11.557Z,67.08
2017-09-04T01:58:22.463Z,67.08
2017-09-04T01:59:32.850Z,66.51
2017-09-04T02:00:44.222Z,66.41
2017-09-04T02:01:54.673Z,66.89
2017-09-04T02:03:04.690Z,66.51
2017-09-04T02:04:14.710Z,66.51
2017-09-04T02:05:24.423Z,66.51
2017-09-04T02:06:34.759Z,66.41
2017-09-04T02:07:45.103Z,66.89
2017-09-04T02:08:55.434Z,66.32
2017-09-04T02:10:05.790Z,66.64
2017-09-04T02:11:16.163Z,66.32
2017-09-04T02:12:26.500Z,66.32
2017-09-04T02:13:36.834Z,66.41
2017-09-04T02:14:47.182Z,66.51
2017-09-04T02:15:57.524Z,66.54
2017-09-04T02:17:07.263Z,66.45
2017-09-04T02:18:17.316Z,66.93
2017-09-04T02:19:27.651Z,66.74
2017-09-04T02:20:37.996Z,66.35
2017-09-04T02:21:48.361Z,66.35
2017-09-04T02:22:58.441Z,66.93
2017-09-04T02:24:08.787Z,66.54
2017-09-04T02:25:19.166Z,66.45
2017-09-04T02:26:29.504Z,67.08
2017-09-04T02:27:39.862Z,66.74
2017-09-04T02:28:50.201Z,66.45
2017-09-04T02:30:00.546Z,66.35
2017-09-04T02:31:10.891Z,67.02
2017-09-04T02:32:21.236Z,66.64
2017-09-04T02:33:31.263Z,66.83
2017-09-04T02:34:41.337Z,66.64
2017-09-04T02:35:51.694Z,66.25
2017-09-04T02:37:02.051Z,66.64
2017-09-04T02:38:12.394Z,66.35
2017-09-04T02:39:22.745Z,66.64
2017-09-04T02:40:32.815Z,66.35
2017-09-04T02:41:43.160Z,66.35
2017-09-04T02:42:53.192Z,66.35
2017-09-04T02:44:03.206Z,66.83
2017-09-04T02:45:13.548Z,66.64
2017-09-04T02:46:23.886Z,66.64
2017-09-04T02:47:35.131Z,66.45
2017-09-04T02:48:45.475Z,66.35
2017-09-04T02:49:55.802Z,66.74
2017-09-04T02:51:06.157Z,66.83
2017-09-04T02:52:16.548Z,66.74
2017-09-04T02:53:26.896Z,66.64
2017-09-04T02:54:37.243Z,66.74
2017-09-04T02:55:50.397Z,67.02
2017-09-04T02:57:00.417Z,67.11
2017-09-04T02:58:10.673Z,67.02
2017-09-04T02:59:21.024Z,66.74
2017-09-04T03:00:30.721Z,67.02
2017-09-04T03:01:41.069Z,66.74
2017-09-04T03:33:33.329Z,64.21
2017-09-04T03:34:43.660Z,65.07
2017-09-04T03:35:53.355Z,65.74
2017-09-04T03:37:03.372Z,66.69
2017-09-04T03:38:13.713Z,66.41
2017-09-04T03:39:24.106Z,66.98
2017-09-04T03:40:34.426Z,66.88
2017-09-04T03:41:44.764Z,67.21
2017-09-04T03:42:54.782Z,67.58
2017-09-04T03:44:04.788Z,67.68
2017-09-04T03:45:15.127Z,66.82
2017-09-04T03:46:25.473Z,67.62
2017-09-04T03:47:35.511Z,67.71
2017-09-04T03:48:45.524Z,67.62
2017-09-04T03:49:55.855Z,67.71
2017-09-04T03:51:06.238Z,67.36
2017-09-04T03:52:16.264Z,67.08
2017-09-04T03:53:26.602Z,66.99
2017-09-04T03:54:36.930Z,66.89
2017-09-04T03:55:47.270Z,67.36
2017-09-04T03:56:57.653Z,67.21
2017-09-04T03:58:07.674Z,67.3
2017-09-04T03:59:17.750Z,67.21
2017-09-04T04:00:28.097Z,67.21
2017-09-04T04:01:38.448Z,67.21
2017-09-04T04:02:48.846Z,67.11
2017-09-04T04:03:59.187Z,67.02
2017-09-04T04:05:09.227Z,67.3
2017-09-04T04:06:19.567Z,67.11
2017-09-04T04:07:29.599Z,67.21
2017-09-04T04:08:39.976Z,67.24
2017-09-04T04:09:50.341Z,66.67
2017-09-04T04:11:00.677Z,66.86
2017-09-04T04:12:11.016Z,66.67
2017-09-04T04:13:21.401Z,67.05
2017-09-04T04:14:32.705Z,66.57
2017-09-04T04:15:43.050Z,66.76
2017-09-04T04:16:53.383Z,66.96
2017-09-04T04:18:03.389Z,66.67
2017-09-04T04:19:13.736Z,66.57
2017-09-04T04:20:24.112Z,66.76
2017-09-04T04:21:34.130Z,66.96
2017-09-04T04:22:43.512Z,66.96
2017-09-04T04:23:53.849Z,66.96
2017-09-04T04:25:04.190Z,66.57
2017-09-04T04:26:13.901Z,66.57
2017-09-04T04:27:23.612Z,66.38
2017-09-04T04:28:33.937Z,66.57
2017-09-04T04:29:44.284Z,66.57
2017-09-04T04:30:54.627Z,66.28
2017-09-04T04:32:04.332Z,66.57
2017-09-04T04:33:14.360Z,66.57
2017-09-04T04:34:24.738Z,66.47
2017-09-04T04:35:34.442Z,66.38
2017-09-04T04:36:45.012Z,66.89
2017-09-04T04:37:55.363Z,66.13
2017-09-04T04:39:05.701Z,67.05
2017-09-04T04:40:16.043Z,66.47
2017-09-04T04:41:26.396Z,66.19
2017-09-04T04:42:36.737Z,66.76
2017-09-04T04:43:48.878Z,66.8
2017-09-04T04:44:58.896Z,66.22
2017-09-04T04:46:09.303Z,66.47
2017-09-04T04:47:19.641Z,66.41
2017-09-04T04:48:29.979Z,66.13
2017-09-04T04:49:39.994Z,64.92
2017-09-04T04:50:50.339Z,63.8
2017-09-04T04:52:00.373Z,63.64
2017-09-04T04:53:10.094Z,63.38
2017-09-04T04:54:20.653Z,63.42
2017-09-04T04:55:30.356Z,63.32
2017-09-04T04:56:40.692Z,63.16
2017-09-04T04:57:51.038Z,63.16
2017-09-04T04:59:01.387Z,63.06
2017-09-04T05:00:11.742Z,63.19
2017-09-04T05:01:23.389Z,63.28
2017-09-04T05:02:33.436Z,63.38
2017-09-04T05:03:43.528Z,63.41
2017-09-04T05:04:53.240Z,63.6
2017-09-04T05:06:03.586Z,63.7
2017-09-04T05:07:13.297Z,63.89
2017-09-04T05:08:23.316Z,64.02
2017-09-04T05:09:33.688Z,64.4
2017-09-04T05:10:43.727Z,64.22
2017-09-04T05:11:54.079Z,64.34
2017-09-04T05:13:04.425Z,64.34
2017-09-04T05:14:14.454Z,64.25
2017-09-04T05:15:24.519Z,64.37
2017-09-04T05:16:34.881Z,64.37
2017-09-04T05:17:45.219Z,64.56
2017-09-04T05:18:55.241Z,64.95
2017-09-04T05:20:05.593Z,65.53
2017-09-04T05:21:15.996Z,66.55
2017-09-04T05:22:26.366Z,67
2017-09-04T05:23:36.722Z,67.58
2017-09-04T05:24:47.064Z,67.45
2017-09-04T05:25:57.403Z,67.25
2017-09-04T05:27:07.454Z,67.61
2017-09-04T05:28:17.791Z,67.32
2017-09-04T05:29:28.143Z,67.41
2017-09-04T05:30:38.177Z,67.61
2017-09-04T05:31:48.205Z,67.32
2017-09-04T05:32:58.609Z,67.22
2017-09-04T05:34:08.944Z,66.84
2017-09-04T05:35:18.966Z,66.49
2017-09-04T05:36:28.984Z,66.49
2017-09-04T05:37:39.324Z,66.1
2017-09-04T05:38:49.401Z,66.58
2017-09-04T05:40:00.577Z,66.77
2017-09-04T05:41:10.929Z,66.46
2017-09-04T05:42:21.281Z,67.13
2017-09-04T05:43:31.317Z,66.46
2017-09-04T05:44:41.360Z,65.53
2017-09-04T05:45:51.708Z,65.75
2017-09-04T05:47:02.043Z,65.66
2017-09-04T05:48:12.385Z,66.1
2017-09-04T05:49:22.723Z,66.77
2017-09-04T05:50:33.133Z,66.68
2017-09-04T05:51:43.160Z,65.62
2017-09-04T05:52:53.182Z,65.46
2017-09-04T05:54:03.554Z,65.75
2017-09-04T05:55:13.262Z,65.94
2017-09-04T05:56:23.663Z,66.39
2017-09-04T05:57:33.700Z,66.68
2017-09-04T05:58:43.742Z,66.3
2017-09-04T05:59:54.092Z,65.46
2017-09-04T06:01:04.432Z,65.94
2017-09-04T06:02:14.821Z,65.94
2017-09-04T06:03:25.160Z,66.04
2017-09-04T06:04:35.180Z,65.94
2017-09-04T06:05:45.537Z,66.42
2017-09-04T06:06:55.876Z,65.94
2017-09-04T06:08:05.949Z,66.04
2017-09-04T06:09:15.991Z,65.56
2017-09-04T06:10:26.334Z,65.59
2017-09-04T06:11:36.356Z,66.04
2017-09-04T06:12:46.697Z,66.14
2017-09-04T06:13:56.781Z,66.71
2017-09-04T06:15:07.116Z,66.04
2017-09-04T06:16:17.468Z,66.52
2017-09-04T06:17:27.800Z,66.42
2017-09-04T06:18:37.824Z,66.71
2017-09-04T06:19:48.223Z,66.42
2017-09-04T06:20:58.585Z,66.71
2017-09-04T06:22:08.933Z,66.14
2017-09-04T06:23:19.269Z,66.58
2017-09-04T06:24:29.335Z,65.94
2017-09-04T06:25:39.747Z,66.71
2017-09-04T06:26:50.098Z,65.94
2017-09-04T06:28:00.434Z,65.75
2017-09-04T06:29:10.773Z,65.75
2017-09-04T06:30:21.145Z,65.94
2017-09-04T06:31:31.481Z,65.94
2017-09-04T06:32:41.828Z,65.56
2017-09-04T06:33:52.179Z,65.66
2017-09-04T06:35:02.519Z,65.75
2017-09-04T06:36:12.867Z,65.46
2017-09-04T06:37:22.948Z,65.94
2017-09-04T06:38:33.300Z,65.97
2017-09-04T06:39:43.653Z,65.88
2017-09-04T06:40:54.000Z,65.69
2017-09-04T06:42:04.328Z,65.59
2017-09-04T06:43:14.751Z,65.78
2017-09-04T06:44:24.770Z,65.97
2017-09-04T06:45:35.103Z,65.66
2017-09-04T06:46:45.454Z,66.07
2017-09-04T06:47:55.472Z,66.07
2017-09-04T06:49:05.547Z,65.78
2017-09-04T06:50:15.909Z,66.07
2017-09-04T06:51:26.261Z,65.88
2017-09-04T06:52:36.612Z,66.07
2017-09-04T06:53:46.633Z,65.97
2017-09-04T06:54:57.022Z,65.78
2017-09-04T06:56:07.368Z,65.88
2017-09-04T06:57:17.725Z,65.69
2017-09-04T06:58:27.752Z,65.97
2017-09-04T06:59:38.115Z,65.59
2017-09-04T07:00:48.180Z,65.4
2017-09-04T07:01:58.207Z,65.5
2017-09-04T07:03:08.557Z,65.69
2017-09-04T07:04:18.900Z,65.5
2017-09-04T07:05:28.974Z,65.5
2017-09-04T07:06:39.317Z,65.5
2017-09-04T07:07:49.687Z,65.63
2017-09-04T07:09:00.025Z,65.72
2017-09-04T07:10:09.735Z,65.91
2017-09-04T07:11:20.077Z,66.01
2017-09-04T07:12:30.464Z,65.91
2017-09-04T07:13:40.483Z,65.91
2017-09-04T07:14:50.834Z,66.1
2017-09-04T07:16:00.853Z,65.91
2017-09-04T07:17:11.213Z,65.91
2017-09-04T07:18:21.597Z,65.91
2017-09-04T07:19:31.917Z,65.94
2017-09-04T07:20:42.261Z,65.94
2017-09-04T07:21:51.959Z,66.04
2017-09-04T07:23:01.985Z,66.04
2017-09-04T07:24:12.344Z,65.85
2017-09-04T07:25:22.361Z,65.94
2017-09-04T07:26:32.093Z,65.75
2017-09-04T07:27:42.150Z,66.04
2017-09-04T07:28:52.484Z,65.94
2017-09-04T07:30:02.883Z,66.04
2017-09-04T07:31:13.101Z,65.94
2017-09-04T07:32:23.454Z,65.75
2017-09-04T07:33:33.795Z,65.94
2017-09-04T07:34:43.811Z,65.85
2017-09-04T07:35:54.202Z,65.85
2017-09-04T07:37:04.587Z,66.14
2017-09-04T07:38:14.983Z,65.94
2017-09-04T07:39:25.334Z,65.56
2017-09-04T07:40:35.365Z,65.88
2017-09-04T07:41:45.448Z,65.98
2017-09-04T07:42:55.783Z,65.98
2017-09-04T07:44:06.125Z,65.78
2017-09-04T07:45:16.155Z,66.27
2017-09-04T07:46:26.505Z,66.07
2017-09-04T07:47:36.919Z,65.88
2017-09-04T07:48:47.281Z,65.78
2017-09-04T07:49:57.669Z,65.78
2017-09-04T07:51:07.705Z,65.78
2017-09-04T07:52:18.043Z,65.88
2017-09-04T07:53:28.414Z,65.78
2017-09-04T07:54:38.443Z,65.81
2017-09-04T07:55:48.790Z,65.5
2017-09-04T07:56:59.159Z,65.53
2017-09-04T07:58:09.499Z,65.91
2017-09-04T07:59:19.848Z,65.53
2017-09-04T08:00:29.866Z,65.91
2017-09-04T08:01:39.902Z,65.81
2017-09-04T08:02:50.240Z,65.53
2017-09-04T08:04:00.286Z,65.33
2017-09-04T08:05:10.678Z,65.43
2017-09-04T08:06:21.023Z,65.14
2017-09-04T08:07:31.362Z,65.43
2017-09-04T08:08:41.752Z,65.72
2017-09-04T08:09:51.789Z,65.17
2017-09-04T08:11:02.124Z,65.37
2017-09-04T08:12:12.143Z,65.37
2017-09-04T08:13:22.180Z,65.75
2017-09-04T08:14:32.523Z,65.17
2017-09-04T08:15:42.866Z,65.75
2017-09-04T08:16:53.259Z,65.37
2017-09-04T08:18:03.272Z,65.3
2017-09-04T08:19:13.611Z,65.01
2017-09-04T08:20:23.959Z,65.01
2017-09-04T08:21:34.293Z,65.01
2017-09-04T08:22:44.375Z,65.05
2017-09-04T08:23:54.718Z,64.86
2017-09-04T08:25:04.750Z,64.86
2017-09-04T08:26:15.090Z,64.86
2017-09-04T08:27:25.120Z,65.05
2017-09-04T08:28:35.461Z,65.14
2017-09-04T08:29:45.801Z,64.76
2017-09-04T08:30:55.855Z,64.95
2017-09-04T08:32:06.183Z,64.69
2017-09-04T08:33:16.521Z,64.01
2017-09-04T08:34:26.895Z,63.76
2017-09-04T08:35:37.268Z,63.6
2017-09-04T08:36:47.295Z,63.05
2017-09-04T08:37:57.631Z,62.69
2017-09-04T08:39:07.969Z,62.53
2017-09-04T08:40:18.365Z,63.21
2017-09-04T08:41:28.701Z,63.85
2017-09-04T08:42:38.716Z,63.98
2017-09-04T08:43:48.763Z,63.85
2017-09-04T08:44:58.470Z,64.53
2017-09-04T08:46:08.860Z,64.82
2017-09-04T08:47:19.216Z,64.53
2017-09-04T08:48:29.586Z,64.69
2017-09-04T08:49:39.933Z,64.89
2017-09-04T08:50:50.276Z,64.69
2017-09-04T08:52:00.634Z,64.72
2017-09-04T08:53:10.984Z,64.62
2017-09-04T08:54:21.328Z,64.92
2017-09-04T08:55:31.693Z,64.53
2017-09-04T08:56:42.035Z,64.34
2017-09-04T08:57:52.394Z,63.95
2017-09-04T08:59:02.750Z,63.89
2017-09-04T09:00:13.096Z,63.89
2017-09-04T09:01:23.120Z,63.79
2017-09-04T09:02:33.157Z,63.89
2017-09-04T09:03:43.502Z,64.27
2017-09-04T09:04:53.840Z,64.17
2017-09-04T09:06:04.188Z,64.01
2017-09-04T09:07:14.569Z,64.01
2017-09-04T09:08:24.615Z,63.82
2017-09-04T09:09:34.396Z,64.11
2017-09-04T09:10:44.747Z,63.82
2017-09-04T09:11:54.779Z,63.65
2017-09-04T09:13:05.150Z,63.95
2017-09-04T09:14:15.508Z,63.95
2017-09-04T09:15:25.889Z,63.85
2017-09-04T09:16:36.237Z,63.95
2017-09-04T09:17:45.972Z,63.98
2017-09-04T09:18:56.350Z,63.98
2017-09-04T09:20:06.401Z,64.07
2017-09-04T09:21:17.304Z,63.59
2017-09-04T09:22:27.338Z,63.4
2017-09-04T09:23:37.702Z,63.1
2017-09-04T09:24:48.043Z,62.65
2017-09-04T09:25:58.420Z,63.17
2017-09-04T09:27:08.141Z,62.49
2017-09-04T09:28:18.480Z,62.78
2017-09-04T09:29:32.255Z,62.78
2017-09-04T09:30:42.823Z,63.85
2017-09-04T09:31:53.164Z,64.01
2017-09-04T09:33:03.240Z,63.91
2017-09-04T09:34:13.279Z,63.23
2017-09-04T09:35:23.623Z,63.43
2017-09-04T09:36:33.649Z,63.23
2017-09-04T09:37:43.367Z,63.33
2017-09-04T09:38:53.777Z,64.11
2017-09-04T09:40:04.136Z,63.98
2017-09-04T09:41:14.188Z,63.88
2017-09-04T09:42:24.205Z,64.17
2017-09-04T09:43:35.188Z,64.07
2017-09-04T09:44:45.268Z,63.69
2017-09-04T09:45:55.625Z,63.59
2017-09-04T09:47:07.971Z,63.23
2017-09-04T09:48:18.307Z,63.46
2017-09-04T09:49:28.323Z,63.72
2017-09-04T09:50:38.244Z,64.01
2017-09-04T09:51:48.598Z,64.01
2017-09-04T09:52:58.959Z,63.26
2017-09-04T09:54:09.299Z,63.1
2017-09-04T09:55:19.656Z,62.81
2017-09-04T09:56:30.057Z,63.1
2017-09-04T09:57:40.101Z,62.84
2017-09-04T09:58:50.443Z,62.84
2017-09-04T10:00:00.501Z,63.49
2017-09-04T10:01:10.853Z,64.26
2017-09-04T10:02:20.569Z,64.23
2017-09-04T10:03:30.910Z,64.4
2017-09-04T10:04:41.258Z,64.59
2017-09-04T10:05:51.296Z,64.59
2017-09-04T10:07:01.670Z,64.11
2017-09-04T10:08:12.023Z,64.4
2017-09-04T10:09:22.370Z,64.59
2017-09-04T10:10:32.088Z,65.34
2017-09-04T10:11:42.631Z,65.14
2017-09-04T10:12:52.676Z,64.75
2017-09-04T10:14:02.758Z,64.65
2017-09-04T10:15:13.124Z,64.75
2017-09-04T10:16:23.486Z,63.88
2017-09-04T10:17:33.844Z,64.04
2017-09-04T10:18:43.880Z,63.46
2017-09-04T10:19:54.228Z,63.17
2017-09-04T10:21:04.586Z,62.71
2017-09-04T10:22:14.949Z,64.26
2017-09-04T10:23:24.983Z,64.92
2017-09-04T10:24:35.333Z,65.47
2017-09-04T10:25:45.421Z,65.24
2017-09-04T10:26:55.782Z,65.63
2017-09-04T10:28:06.121Z,65.98
2017-09-04T10:29:16.476Z,65.11
2017-09-04T10:30:26.184Z,65.89
2017-09-04T10:31:36.592Z,66.05
2017-09-04T10:32:46.951Z,66.3
2017-09-04T10:33:57.296Z,65.53
2017-09-04T10:35:07.331Z,65.66
2017-09-04T10:36:17.356Z,65.24
2017-09-04T10:37:27.129Z,65.17
2017-09-04T10:38:37.165Z,65.66
2017-09-04T10:39:47.516Z,64.95
2017-09-04T10:40:57.885Z,64.98
2017-09-04T10:42:08.242Z,64.82
2017-09-04T10:43:18.587Z,64.24
2017-09-04T10:44:28.609Z,63.95
2017-09-04T10:45:38.971Z,63.88
2017-09-04T10:46:49.317Z,63.78
2017-09-04T10:47:59.681Z,64.17
2017-09-04T10:49:09.730Z,64.92
2017-09-04T10:50:20.096Z,63.75
2017-09-04T10:51:30.469Z,64.27
2017-09-04T10:52:40.526Z,64.62
2017-09-04T10:53:50.879Z,64.07
2017-09-04T10:55:01.283Z,63.78
2017-09-04T10:56:11.637Z,63.91
2017-09-04T10:57:21.665Z,64.95
2017-09-04T10:58:32.011Z,65.24
2017-09-04T10:59:42.377Z,64.82
2017-09-04T11:00:52.785Z,64.56
2017-09-04T11:02:03.140Z,63.98
2017-09-04T11:03:13.502Z,63.98
2017-09-04T11:04:23.536Z,64.07
2017-09-04T11:05:33.552Z,63.59
2017-09-04T11:06:43.896Z,63.59
2017-09-04T11:07:54.245Z,63.98
2017-09-04T11:09:04.592Z,64.01
2017-09-04T11:10:14.625Z,64.37
2017-09-04T11:11:24.979Z,64.17
2017-09-04T11:12:35.321Z,63.78
2017-09-04T11:13:45.375Z,64.11
2017-09-04T11:14:55.089Z,64.11
2017-09-04T11:16:05.451Z,64.01
2017-09-04T11:17:15.808Z,63.91
2017-09-04T11:18:26.316Z,63.95
2017-09-04T11:19:36.682Z,63.95
2017-09-04T11:20:47.053Z,64.04
2017-09-04T11:21:57.411Z,64.23
2017-09-04T11:23:07.450Z,64.04
2017-09-04T11:24:17.856Z,64.62
2017-09-04T11:25:28.229Z,65.27
2017-09-04T11:26:38.589Z,65.53
2017-09-04T11:27:48.633Z,64.65
2017-09-04T11:28:59.003Z,64.2
2017-09-04T11:30:09.535Z,64.01
2017-09-04T11:31:19.886Z,64.23
2017-09-04T11:32:30.235Z,63.95
2017-09-04T11:33:40.593Z,63.75
2017-09-04T11:34:50.982Z,63.98
2017-09-04T11:36:01.341Z,63.78
2017-09-04T11:37:11.054Z,63.59
2017-09-04T11:38:21.406Z,63.04
2017-09-04T11:39:31.768Z,63.36
2017-09-04T11:40:42.120Z,62.74
2017-09-04T11:41:52.155Z,62.58
2017-09-04T11:43:02.507Z,61.83
2017-09-04T11:44:12.539Z,62.06
2017-09-04T11:45:22.898Z,61.51
2017-09-04T11:46:33.295Z,61.21
2017-09-04T11:47:43.326Z,61.63
2017-09-04T11:48:53.353Z,61.76
2017-09-04T11:50:03.375Z,63.45
2017-09-04T11:51:13.430Z,64
2017-09-04T11:52:23.771Z,63.78
2017-09-04T11:53:34.117Z,64.43
2017-09-04T11:54:44.478Z,64.91
2017-09-04T11:55:54.498Z,65.08
2017-09-04T11:57:06.349Z,65.43
2017-09-04T11:58:16.120Z,65.98
2017-09-04T11:59:26.493Z,65.98
2017-09-04T12:00:36.870Z,65.95
2017-09-04T12:01:47.228Z,64.88
2017-09-04T12:02:57.626Z,64.88
2017-09-04T12:04:07.974Z,64.04
2017-09-04T12:05:18.362Z,64.26
2017-09-04T12:06:28.756Z,64.07
2017-09-04T12:07:38.827Z,64.23
2017-09-04T12:08:49.281Z,65.2
2017-09-04T12:09:59.670Z,65.17
2017-09-04T12:11:10.042Z,65.17
2017-09-04T12:12:20.397Z,65.08
2017-09-04T12:13:32.058Z,64.85
2017-09-04T12:14:42.467Z,65.05
2017-09-04T12:15:52.502Z,64.85
2017-09-04T12:17:02.862Z,64.3
2017-09-04T12:18:12.905Z,64.88
2017-09-04T12:19:24.602Z,64.11
2017-09-04T12:20:35.022Z,64.04
2017-09-04T12:21:45.373Z,64.04
2017-09-04T12:22:55.433Z,64.62
2017-09-04T12:24:05.464Z,64.04
2017-09-04T12:25:15.850Z,64.23
2017-09-04T12:26:26.293Z,63.85
2017-09-04T12:27:36.665Z,63.29
2017-09-04T12:28:47.044Z,63.32
2017-09-04T12:29:57.440Z,62.84
2017-09-04T12:31:07.834Z,64.11
2017-09-04T12:32:17.998Z,64.95
2017-09-04T12:33:28.436Z,64.72
2017-09-04T12:34:38.473Z,64.59
2017-09-04T12:35:48.523Z,64.72
2017-09-04T12:36:58.889Z,65.27
2017-09-04T12:38:09.532Z,65.24
2017-09-04T12:39:19.903Z,65.14
2017-09-04T12:40:30.266Z,65.14
2017-09-04T12:41:40.631Z,65.24
2017-09-04T12:42:50.979Z,65.92
2017-09-04T12:44:01.185Z,66.37
2017-09-04T12:45:11.569Z,65.66
2017-09-04T12:46:21.941Z,65.17
2017-09-04T12:47:32.325Z,64.53
2017-09-04T12:48:42.684Z,64.07
2017-09-04T12:49:53.108Z,64.11
2017-09-04T12:51:02.816Z,63.26
2017-09-04T12:52:12.854Z,63.26
2017-09-04T12:53:22.899Z,63.07
2017-09-04T12:54:32.927Z,62.81
2017-09-04T12:55:43.359Z,63.13
2017-09-04T12:56:53.722Z,62.94
2017-09-04T12:58:06.226Z,62.84
2017-09-04T12:59:16.285Z,62.84
2017-09-04T13:00:26.654Z,62.84
2017-09-04T13:01:37.053Z,63.04
2017-09-04T13:02:47.411Z,63.17
2017-09-04T13:03:57.766Z,63.17
2017-09-04T13:05:08.127Z,63.07
2017-09-04T13:06:19.240Z,62.61
2017-09-04T13:07:29.300Z,62.51
2017-09-04T13:08:39.079Z,62.84
2017-09-04T13:09:49.427Z,62.84
2017-09-04T13:10:59.811Z,62.84
2017-09-04T13:12:09.878Z,63.06
2017-09-04T13:13:20.225Z,64.36
2017-09-04T13:14:30.593Z,64.65
2017-09-04T13:15:40.944Z,65.01
2017-09-04T13:16:51.324Z,64.78
2017-09-04T13:18:01.351Z,64.04
2017-09-04T13:19:11.708Z,63.49
2017-09-04T13:20:22.096Z,63.03
2017-09-04T13:21:31.814Z,62.74
2017-09-04T13:22:41.853Z,62.74
2017-09-04T13:23:52.206Z,62.67
2017-09-04T13:25:01.980Z,62.8
2017-09-04T13:26:12.011Z,63.45
2017-09-04T13:27:21.765Z,64.39
2017-09-04T13:28:32.139Z,63.42
2017-09-04T13:29:42.525Z,64.1
2017-09-04T13:30:52.614Z,63.97
2017-09-04T13:32:02.953Z,63.42
2017-09-04T13:33:13.307Z,62.96
2017-09-04T13:34:24.028Z,62.51
2017-09-04T13:35:34.409Z,62.99
2017-09-04T13:36:44.461Z,62.83
2017-09-04T13:37:54.503Z,61.99
2017-09-04T13:39:04.228Z,61.72
2017-09-04T13:40:14.586Z,61.33
2017-09-04T13:41:24.923Z,61.56
2017-09-04T13:42:35.333Z,61.56
2017-09-04T13:43:45.681Z,61.2
2017-09-04T13:44:56.037Z,61.59
2017-09-04T13:46:06.399Z,61.4
2017-09-04T13:47:16.746Z,61.69
2017-09-04T13:48:26.828Z,61.59
2017-09-04T13:49:36.877Z,62.08
2017-09-04T13:50:47.222Z,63.02
2017-09-04T13:51:57.594Z,62.53
2017-09-04T13:53:07.949Z,62.99
2017-09-04T13:54:18.396Z,63.48
2017-09-04T13:55:28.749Z,63.15
2017-09-04T13:56:39.862Z,63.81
2017-09-04T13:57:49.923Z,64
2017-09-04T13:58:59.955Z,64.26
2017-09-04T14:00:10.383Z,64.17
2017-09-04T14:01:22.253Z,64.42
2017-09-04T14:02:32.649Z,64.42
2017-09-04T14:03:42.689Z,64.81
2017-09-04T14:04:53.051Z,64.62
2017-09-04T14:06:03.470Z,65.17
2017-09-04T14:07:13.521Z,65.17
2017-09-04T14:08:23.888Z,64.85
2017-09-04T14:09:35.534Z,65.33
2017-09-04T14:10:45.910Z,65.14
2017-09-04T14:11:55.994Z,65.11
2017-09-04T14:13:06.050Z,65.01
2017-09-04T14:14:16.091Z,65.01
2017-09-04T14:15:26.466Z,65.3
2017-09-04T14:16:36.801Z,64.98
2017-09-04T14:17:47.157Z,65.01
2017-09-04T14:18:57.205Z,64.88
2017-09-04T14:20:07.556Z,64.78
2017-09-04T14:21:17.935Z,64.78
2017-09-04T14:22:27.976Z,64.98
2017-09-04T14:23:38.396Z,64.88
2017-09-04T14:24:48.433Z,64.78
2017-09-04T14:25:58.471Z,64.78
2017-09-04T14:27:11.031Z,64.81
2017-09-04T14:28:21.391Z,64.88
2017-09-04T14:29:32.059Z,64.98
2017-09-04T14:30:42.433Z,64.69
2017-09-04T14:31:52.779Z,64.98
2017-09-04T14:33:03.142Z,64.98
2017-09-04T14:34:13.172Z,64.88
2017-09-04T14:35:23.581Z,65.14
2017-09-04T14:36:33.644Z,65.14
2017-09-04T14:37:44.003Z,65.14
2017-09-04T14:38:54.371Z,65.05
2017-09-04T14:40:04.435Z,65.24
2017-09-04T14:41:14.217Z,65.33
2017-09-04T14:42:24.580Z,65.43
2017-09-04T14:43:35.297Z,65.59
2017-09-04T14:44:45.652Z,65.3
2017-09-04T14:45:55.715Z,65.3
2017-09-04T14:47:06.130Z,65.3
2017-09-04T14:48:16.490Z,65.3
2017-09-04T14:49:29.120Z,65.4
2017-09-04T14:50:39.485Z,65.4
2017-09-04T14:51:49.557Z,65.37
2017-09-04T14:52:59.999Z,65.37
2017-09-04T14:54:10.368Z,64.92
2017-09-04T14:55:20.710Z,65.17
2017-09-04T14:56:30.763Z,65.4
2017-09-04T14:57:40.464Z,65.17
2017-09-04T14:58:50.871Z,64.88
2017-09-04T15:00:01.258Z,64.98
2017-09-04T15:01:11.311Z,65.27
2017-09-04T15:02:21.362Z,65.27
2017-09-04T15:03:31.708Z,64.95
2017-09-04T15:04:41.754Z,65.53
2017-09-04T15:05:52.136Z,65.24
2017-09-04T15:07:02.515Z,65.14
2017-09-04T15:08:12.883Z,65.34
2017-09-04T15:09:23.257Z,66.02
2017-09-04T15:10:33.468Z,66.11
2017-09-04T15:11:43.834Z,66.11
2017-09-04T15:12:53.890Z,65.63
2017-09-04T15:14:03.929Z,66.11
2017-09-04T15:15:14.281Z,65.72
2017-09-04T15:16:24.683Z,65.69
2017-09-04T15:17:34.714Z,65.59
2017-09-04T15:18:44.442Z,65.59
2017-09-04T15:19:54.828Z,65.69
2017-09-04T15:21:05.159Z,65.69
2017-09-04T15:22:15.591Z,65.59
2017-09-04T15:23:25.321Z,66.08
2017-09-04T15:24:35.675Z,65.98
2017-09-04T15:25:46.059Z,66.17
2017-09-04T15:26:56.401Z,65.89
2017-09-04T15:28:06.810Z,65.79
2017-09-04T15:29:16.985Z,65.98
2017-09-04T15:30:27.398Z,65.98
2017-09-04T15:31:37.645Z,65.98
2017-09-04T15:32:47.988Z,65.59
2017-09-04T15:33:58.364Z,65.98
2017-09-04T15:35:08.741Z,65.89
2017-09-04T15:36:19.111Z,65.59
2017-09-04T15:37:29.164Z,65.69